Time;durP1;ratioP1;P1;durP2;ratioP2;P2;SDS_P1;SDS_P2;PMS_P1;PMS_P2;Temp;Humidity;BMP_temperature;BMP_pressure;BME280_temperature;BME280_humidity;BME280_pressure;Samples;Min_cycle;Max_cycle;Signal;HPM_P1;HPM_P2
2021/10/09 00:00:28;;;;;;;80.55;41.63;;;;;;;;;;5038870;28;20196;-73
2021/10/09 00:02:53;;;;;;;63.50;35.50;;;;;;;;;;5029887;28;20192;-73
2021/10/09 00:05:18;;;;;;;76.72;42.33;;;;;;;;;;5036067;28;20273;-74
2021/10/09 00:07:44;;;;;;;79.18;42.92;;;;;;;;;;5041213;28;20239;-73
2021/10/09 00:10:11;;;;;;;84.15;44.85;;;;;;;;;;5030728;28;20233;-73
2021/10/09 00:12:37;;;;;;;86.32;44.75;;;;;;;;;;5037601;28;20220;-73
2021/10/09 00:15:04;;;;;;;83.50;43.33;;;;;;;;;;5032133;28;20715;-73
2021/10/09 00:17:30;;;;;;;85.13;43.78;;;;;;;;;;5042118;28;20182;-73
2021/10/09 00:19:55;;;;;;;89.47;46.00;;;;;;;;;;5028970;28;20217;-73
2021/10/09 00:22:21;;;;;;;86.70;45.50;;;;;;;;;;5039383;28;20185;-74
2021/10/09 00:24:46;;;;;;;74.30;41.47;;;;;;;;;;5033108;28;20189;-74
2021/10/09 00:27:13;;;;;;;91.53;45.17;;;;;;;;;;5041183;28;20204;-73
2021/10/09 00:29:38;;;;;;;93.90;48.10;;;;;;;;;;5035040;28;20185;-73
2021/10/09 00:32:04;;;;;;;95.10;47.63;;;;;;;;;;5037904;28;20564;-73
2021/10/09 00:34:29;;;;;;;94.88;48.97;;;;;;;;;;5028798;28;20194;-73
2021/10/09 00:36:54;;;;;;;101.07;48.20;;;;;;;;;;5040358;28;20257;-73
2021/10/09 00:39:20;;;;;;;95.50;46.47;;;;;;;;;;5038699;28;20578;-73
2021/10/09 00:41:45;;;;;;;101.53;48.47;;;;;;;;;;5031546;28;20208;-73
2021/10/09 00:44:13;;;;;;;95.50;47.78;;;;;;;;;;5042907;28;20534;-73
2021/10/09 00:46:39;;;;;;;100.63;47.85;;;;;;;;;;5033979;28;20202;-73
2021/10/09 00:49:06;;;;;;;102.30;49.25;;;;;;;;;;5036598;28;20182;-73
2021/10/09 00:51:31;;;;;;;100.70;48.85;;;;;;;;;;5027708;28;20327;-73
2021/10/09 00:54:00;;;;;;;108.53;51.20;;;;;;;;;;5034642;28;20293;-73
2021/10/09 00:56:28;;;;;;;115.85;54.05;;;;;;;;;;5028354;28;20193;-73
2021/10/09 00:58:54;;;;;;;112.25;53.33;;;;;;;;;;5038719;28;20170;-73
2021/10/09 01:01:20;;;;;;;113.63;49.67;;;;;;;;;;5034329;28;20181;-73
2021/10/09 01:03:48;;;;;;;101.55;47.88;;;;;;;;;;5042845;28;20177;-73
2021/10/09 01:06:14;;;;;;;109.45;50.97;;;;;;;;;;5028324;28;20336;-73
2021/10/09 01:08:39;;;;;;;109.05;51.28;;;;;;;;;;5044658;28;20260;-73
2021/10/09 01:11:05;;;;;;;111.38;51.20;;;;;;;;;;5036816;28;20188;-73
2021/10/09 01:13:31;;;;;;;111.72;51.03;;;;;;;;;;5034207;28;20232;-73
2021/10/09 01:15:56;;;;;;;106.40;49.60;;;;;;;;;;5039513;28;20238;-73
2021/10/09 01:18:22;;;;;;;117.80;52.20;;;;;;;;;;5034118;28;20186;-73
2021/10/09 01:20:56;;;;;;;113.68;51.05;;;;;;;;;;5037245;28;20181;-74
2021/10/09 01:23:23;;;;;;;121.07;52.88;;;;;;;;;;5031297;28;20183;-74
2021/10/09 01:25:49;;;;;;;124.25;53.13;;;;;;;;;;5035129;28;20188;-73
2021/10/09 01:28:15;;;;;;;108.25;49.20;;;;;;;;;;5028220;28;20209;-73
2021/10/09 01:30:41;;;;;;;100.13;44.35;;;;;;;;;;5037918;28;20216;-73
2021/10/09 01:33:07;;;;;;;117.80;52.38;;;;;;;;;;5025826;28;20609;-74
2021/10/09 01:35:44;;;;;;;113.25;50.95;;;;;;;;;;5043167;28;20247;-72
2021/10/09 01:38:10;;;;;;;119.07;51.22;;;;;;;;;;5028990;28;20190;-73
2021/10/09 01:40:35;;;;;;;134.10;55.25;;;;;;;;;;5044411;28;20188;-73
2021/10/09 01:43:00;;;;;;;117.97;53.25;;;;;;;;;;5037501;28;20182;-73
2021/10/09 01:45:26;;;;;;;130.48;55.28;;;;;;;;;;5040648;28;20205;-73
2021/10/09 01:47:51;;;;;;;114.47;50.55;;;;;;;;;;5044486;28;20280;-73
2021/10/09 01:50:16;;;;;;;110.00;48.85;;;;;;;;;;5028835;28;20196;-73
2021/10/09 01:52:42;;;;;;;132.93;56.67;;;;;;;;;;5045707;28;20298;-73
2021/10/09 01:55:08;;;;;;;133.00;56.95;;;;;;;;;;5030505;28;20193;-73
2021/10/09 01:57:33;;;;;;;126.50;53.95;;;;;;;;;;5041255;28;20398;-74
2021/10/09 01:59:58;;;;;;;132.88;56.20;;;;;;;;;;5031616;28;20190;-74
2021/10/09 02:02:24;;;;;;;130.05;56.28;;;;;;;;;;5038606;28;20186;-74
2021/10/09 02:04:49;;;;;;;145.35;59.13;;;;;;;;;;5038418;28;20573;-73
2021/10/09 02:07:19;;;;;;;135.50;59.13;;;;;;;;;;5043793;28;20548;-73
2021/10/09 02:09:44;;;;;;;140.13;57.20;;;;;;;;;;5039028;28;20656;-73
2021/10/09 02:12:10;;;;;;;146.23;59.38;;;;;;;;;;5040998;28;20229;-73
2021/10/09 02:14:47;;;;;;;145.18;59.17;;;;;;;;;;5037840;28;20186;-73
2021/10/09 02:17:53;;;;;;;146.20;60.58;;;;;;;;;;5043506;28;20184;-73
2021/10/09 02:25:47;;;;;;;143.90;58.90;;;;;;;;;;5036848;28;20204;-72
2021/10/09 02:28:17;;;;;;;146.70;58.80;;;;;;;;;;5040370;28;20217;-74
2021/10/09 02:30:43;;;;;;;134.30;56.07;;;;;;;;;;5033688;28;20186;-74
2021/10/09 02:33:09;;;;;;;156.13;62.27;;;;;;;;;;5036777;28;20198;-73
2021/10/09 02:35:35;;;;;;;158.83;62.03;;;;;;;;;;5034625;28;20272;-73
2021/10/09 02:38:02;;;;;;;159.33;62.57;;;;;;;;;;5043827;28;20505;-73
2021/10/09 02:40:27;;;;;;;161.93;63.97;;;;;;;;;;5043219;28;20185;-73
2021/10/09 02:42:53;;;;;;;166.90;63.80;;;;;;;;;;5035475;28;20348;-73
2021/10/09 02:45:18;;;;;;;166.13;63.73;;;;;;;;;;5038843;28;20315;-73
2021/10/09 02:47:43;;;;;;;172.97;64.47;;;;;;;;;;5033134;28;20182;-73
2021/10/09 02:50:16;;;;;;;157.87;61.47;;;;;;;;;;5043607;28;20197;-73
2021/10/09 02:52:42;;;;;;;168.27;63.13;;;;;;;;;;5034598;28;20210;-72
2021/10/09 02:55:08;;;;;;;155.73;59.93;;;;;;;;;;5042978;28;20196;-72
2021/10/09 02:57:35;;;;;;;160.57;62.33;;;;;;;;;;5034916;28;20676;-72
2021/10/09 03:00:00;;;;;;;151.37;59.87;;;;;;;;;;5041359;28;20524;-73
2021/10/09 03:02:26;;;;;;;156.63;62.97;;;;;;;;;;5034032;28;20296;-73
2021/10/09 03:04:51;;;;;;;174.00;66.23;;;;;;;;;;5037898;28;20539;-73
2021/10/09 03:07:16;;;;;;;176.17;65.83;;;;;;;;;;5027578;28;20196;-73
2021/10/09 03:09:42;;;;;;;179.87;66.37;;;;;;;;;;5033093;28;20228;-73
2021/10/09 03:12:07;;;;;;;180.57;66.40;;;;;;;;;;5034574;28;20186;-73
2021/10/09 03:14:32;;;;;;;196.87;68.50;;;;;;;;;;5030012;28;20231;-73
2021/10/09 03:16:58;;;;;;;195.33;67.60;;;;;;;;;;5040510;28;20205;-74
2021/10/09 03:19:23;;;;;;;195.63;68.03;;;;;;;;;;5032846;28;20204;-72
2021/10/09 03:21:48;;;;;;;268.77;72.83;;;;;;;;;;5038391;28;20189;-73
2021/10/09 03:24:14;;;;;;;230.73;73.37;;;;;;;;;;5036702;28;20612;-73
2021/10/09 03:26:39;;;;;;;282.33;74.23;;;;;;;;;;5041486;28;20672;-73
2021/10/09 03:29:05;;;;;;;411.87;83.80;;;;;;;;;;5037645;28;20201;-73
2021/10/09 03:31:30;;;;;;;327.90;77.47;;;;;;;;;;5038865;28;20185;-73
2021/10/09 03:33:56;;;;;;;357.65;82.40;;;;;;;;;;5035769;28;20585;-73
2021/10/09 03:36:21;;;;;;;260.73;73.43;;;;;;;;;;5041645;28;20636;-74
2021/10/09 03:38:47;;;;;;;311.10;78.73;;;;;;;;;;5032573;28;20185;-73
2021/10/09 03:41:14;;;;;;;370.00;81.47;;;;;;;;;;5042185;28;20193;-73
2021/10/09 03:43:39;;;;;;;399.23;81.43;;;;;;;;;;5040063;28;20184;-74
2021/10/09 03:53:34;;;;;;;286.92;73.53;;;;;;;;;;5038548;28;20578;-73
2021/10/09 03:55:59;;;;;;;307.02;73.28;;;;;;;;;;5034307;28;20201;-73
2021/10/09 03:58:25;;;;;;;274.30;71.32;;;;;;;;;;5035398;28;20213;-73
2021/10/09 04:00:50;;;;;;;321.08;75.70;;;;;;;;;;5035796;28;20193;-73
2021/10/09 04:03:16;;;;;;;326.00;75.50;;;;;;;;;;5038471;28;20681;-73
2021/10/09 04:05:41;;;;;;;195.25;61.97;;;;;;;;;;5034226;28;20197;-73
2021/10/09 04:08:07;;;;;;;278.85;70.18;;;;;;;;;;5044653;28;20189;-73
2021/10/09 04:10:37;;;;;;;232.40;66.07;;;;;;;;;;5033832;28;20217;-73
2021/10/09 04:13:03;;;;;;;305.25;71.00;;;;;;;;;;5035896;28;20210;-73
2021/10/09 04:15:29;;;;;;;228.73;66.38;;;;;;;;;;5035554;28;20300;-73
2021/10/09 04:17:55;;;;;;;237.43;65.90;;;;;;;;;;5032205;28;20324;-73
2021/10/09 04:20:20;;;;;;;187.85;58.35;;;;;;;;;;5040429;28;20193;-73
2021/10/09 04:22:45;;;;;;;220.30;64.43;;;;;;;;;;5031546;28;20198;-73
2021/10/09 04:25:11;;;;;;;244.70;64.27;;;;;;;;;;5038582;28;20181;-74
2021/10/09 04:27:36;;;;;;;231.32;65.25;;;;;;;;;;5029841;28;20189;-73
2021/10/09 04:30:04;;;;;;;187.97;59.50;;;;;;;;;;5045222;28;20693;-73
2021/10/09 04:32:29;;;;;;;245.88;64.47;;;;;;;;;;5034684;28;20217;-73
2021/10/09 04:34:55;;;;;;;199.97;63.53;;;;;;;;;;5041273;28;20653;-73
2021/10/09 04:37:20;;;;;;;180.13;60.07;;;;;;;;;;5033300;28;20616;-73
2021/10/09 04:39:45;;;;;;;173.40;61.07;;;;;;;;;;5035135;28;20199;-73
2021/10/09 04:42:10;;;;;;;173.60;57.57;;;;;;;;;;5028451;28;20193;-74
2021/10/09 04:44:36;;;;;;;208.03;62.97;;;;;;;;;;5036606;28;20514;-74
2021/10/09 04:47:01;;;;;;;230.47;64.50;;;;;;;;;;5037688;28;20178;-73
2021/10/09 04:49:26;;;;;;;227.53;63.03;;;;;;;;;;5032353;28;20189;-73
2021/10/09 04:51:52;;;;;;;202.40;65.00;;;;;;;;;;5039008;28;20193;-73
2021/10/09 04:54:17;;;;;;;174.40;60.57;;;;;;;;;;5029863;28;20202;-74
2021/10/09 04:56:43;;;;;;;168.65;59.78;;;;;;;;;;5038008;28;20307;-73
2021/10/09 04:59:08;;;;;;;194.23;61.23;;;;;;;;;;5025814;28;20186;-74
2021/10/09 05:01:33;;;;;;;243.85;65.47;;;;;;;;;;5035195;28;20234;-74
2021/10/09 05:03:59;;;;;;;194.38;59.70;;;;;;;;;;4324354;28;10000809;-74
2021/10/09 05:06:24;;;;;;;197.40;62.72;;;;;;;;;;5032983;28;20318;-74
2021/10/09 05:08:49;;;;;;;173.90;58.43;;;;;;;;;;5030683;28;20217;-73
2021/10/09 05:11:19;;;;;;;184.07;61.38;;;;;;;;;;5036207;28;20189;-74
2021/10/09 05:13:45;;;;;;;204.25;61.35;;;;;;;;;;5024652;28;20301;-74
2021/10/09 05:16:10;;;;;;;151.63;57.72;;;;;;;;;;5035970;28;20305;-74
2021/10/09 05:18:35;;;;;;;147.87;55.83;;;;;;;;;;5035963;28;20205;-74
2021/10/09 05:21:01;;;;;;;151.07;57.23;;;;;;;;;;5027944;28;20189;-74
2021/10/09 05:23:28;;;;;;;146.13;56.90;;;;;;;;;;5035901;28;20193;-73
2021/10/09 05:25:54;;;;;;;152.33;57.40;;;;;;;;;;5024944;28;20645;-73
2021/10/09 05:28:24;;;;;;;157.98;58.28;;;;;;;;;;5036012;28;20193;-73
2021/10/09 05:30:49;;;;;;;152.73;56.42;;;;;;;;;;5032273;28;20674;-74
2021/10/09 05:35:51;;;;;;;175.07;58.95;;;;;;;;;;5030020;28;20679;-73
2021/10/09 05:38:16;;;;;;;180.73;60.03;;;;;;;;;;5030918;28;20198;-74
2021/10/09 05:40:41;;;;;;;162.10;59.57;;;;;;;;;;5028980;28;20521;-74
2021/10/09 05:43:07;;;;;;;156.63;57.03;;;;;;;;;;5031875;28;20531;-73
2021/10/09 05:45:33;;;;;;;171.43;58.78;;;;;;;;;;5025306;28;20197;-73
2021/10/09 05:47:59;;;;;;;151.82;57.55;;;;;;;;;;5031292;28;20189;-73
2021/10/09 05:50:29;;;;;;;150.70;57.88;;;;;;;;;;5024537;28;20192;-74
2021/10/09 05:55:58;;;;;;;157.57;59.35;;;;;;;;;;5032765;28;20213;-73
2021/10/09 05:58:26;;;;;;;154.83;57.40;;;;;;;;;;5030796;28;20244;-73
2021/10/09 06:01:19;;;;;;;142.02;56.35;;;;;;;;;;5033446;28;20576;-73
2021/10/09 06:42:17;;;;;;;129.77;54.45;;;;;;;;;;5031063;28;20554;-75
2021/10/09 06:42:18;;;;;;;132.43;55.38;;;;;;;;;;5037723;28;20273;-74
2021/10/09 07:00:58;;;;;;;131.90;53.47;;;;;;;;;;5026521;28;20368;-73
2021/10/09 07:03:24;;;;;;;127.28;53.95;;;;;;;;;;5033937;28;20276;-73
2021/10/09 07:05:50;;;;;;;120.28;51.83;;;;;;;;;;5034692;28;20649;-73
2021/10/09 07:08:16;;;;;;;123.47;53.65;;;;;;;;;;5034426;28;20194;-73
2021/10/09 07:10:45;;;;;;;116.40;51.63;;;;;;;;;;5035176;28;20228;-73
2021/10/09 07:13:12;;;;;;;123.07;51.45;;;;;;;;;;5037335;28;20329;-73
2021/10/09 07:15:38;;;;;;;118.53;52.38;;;;;;;;;;5036548;28;20727;-74
2021/10/09 07:18:08;;;;;;;110.38;51.75;;;;;;;;;;5040098;28;20306;-73
2021/10/09 07:20:34;;;;;;;108.60;50.80;;;;;;;;;;5028767;28;20637;-73
2021/10/09 07:22:59;;;;;;;115.80;50.92;;;;;;;;;;5040715;28;20198;-73
2021/10/09 07:25:24;;;;;;;109.60;50.30;;;;;;;;;;5033077;28;20182;-73
2021/10/09 07:27:49;;;;;;;107.55;50.22;;;;;;;;;;5040356;28;20196;-73
2021/10/09 07:30:16;;;;;;;112.07;50.53;;;;;;;;;;5041886;28;20186;-74
2021/10/09 07:32:44;;;;;;;95.45;47.88;;;;;;;;;;5033141;28;20201;-73
2021/10/09 07:35:09;;;;;;;99.38;48.90;;;;;;;;;;5047013;28;20193;-75
2021/10/09 07:37:35;;;;;;;102.75;49.00;;;;;;;;;;5026117;28;20348;-73
2021/10/09 07:40:00;;;;;;;93.60;46.88;;;;;;;;;;5035155;28;20191;-73
2021/10/09 07:42:25;;;;;;;92.85;46.67;;;;;;;;;;5030274;28;20197;-72
2021/10/09 07:44:51;;;;;;;84.30;44.40;;;;;;;;;;5041410;28;20319;-74
2021/10/09 07:47:17;;;;;;;89.97;44.78;;;;;;;;;;5032784;28;20594;-73
2021/10/09 07:49:43;;;;;;;82.63;43.65;;;;;;;;;;5038022;28;20571;-74
2021/10/09 07:52:08;;;;;;;83.38;44.65;;;;;;;;;;5036666;28;20189;-73
2021/10/09 07:54:34;;;;;;;82.90;44.45;;;;;;;;;;5041303;28;20224;-74
2021/10/09 07:57:00;;;;;;;89.07;45.92;;;;;;;;;;5040210;28;20209;-73
2021/10/09 07:59:25;;;;;;;79.50;43.75;;;;;;;;;;5037698;28;20182;-73
2021/10/09 08:01:51;;;;;;;83.30;43.17;;;;;;;;;;4344381;28;10021521;-73
2021/10/09 08:04:17;;;;;;;78.65;43.50;;;;;;;;;;5019359;28;20273;-73
2021/10/09 08:06:43;;;;;;;74.40;42.38;;;;;;;;;;5036538;28;20289;-73
2021/10/09 08:09:08;;;;;;;65.15;38.38;;;;;;;;;;5031525;28;20231;-73
2021/10/09 08:11:34;;;;;;;70.10;42.00;;;;;;;;;;5038945;28;20633;-73
2021/10/09 08:13:59;;;;;;;74.90;42.42;;;;;;;;;;5025572;28;20224;-73
2021/10/09 08:16:25;;;;;;;70.30;41.03;;;;;;;;;;5036945;28;20284;-73
2021/10/09 08:18:50;;;;;;;68.45;39.85;;;;;;;;;;5027492;28;20685;-73
2021/10/09 08:21:17;;;;;;;67.95;40.40;;;;;;;;;;5037373;28;20193;-73
2021/10/09 08:39:42;;;;;;;67.28;40.10;;;;;;;;;;5036572;28;20233;-73
2021/10/09 08:42:09;;;;;;;69.93;41.65;;;;;;;;;;5033801;28;20185;-73
2021/10/09 08:44:34;;;;;;;72.13;40.80;;;;;;;;;;4673458;28;10000410;-73
2021/10/09 08:47:00;;;;;;;70.97;38.97;;;;;;;;;;5036407;28;20197;-73
2021/10/09 08:49:26;;;;;;;69.82;40.58;;;;;;;;;;5040553;28;20538;-73
2021/10/09 08:51:51;;;;;;;67.50;39.97;;;;;;;;;;5023222;28;20196;-73
2021/10/09 08:54:17;;;;;;;66.05;39.35;;;;;;;;;;4678563;28;10000325;-74
2021/10/09 08:56:47;;;;;;;64.78;38.45;;;;;;;;;;5030175;28;20227;-74
2021/10/09 08:59:23;;;;;;;62.67;38.55;;;;;;;;;;5030044;28;20685;-73
2021/10/09 09:02:12;;;;;;;62.05;37.95;;;;;;;;;;5042405;28;20649;-73
2021/10/09 09:04:55;;;;;;;62.33;38.53;;;;;;;;;;5032659;28;20196;-74
2021/10/09 09:37:07;;;;;;;59.70;35.10;;;;;;;;;;5041530;28;20189;-74
2021/10/09 09:39:42;;;;;;;59.30;33.60;;;;;;;;;;5027889;28;20220;-74
2021/10/09 09:42:09;;;;;;;56.92;34.45;;;;;;;;;;5041084;28;20525;-74
2021/10/09 09:44:35;;;;;;;54.00;34.67;;;;;;;;;;5028030;28;20653;-74
2021/10/09 09:47:06;;;;;;;51.25;33.03;;;;;;;;;;5035801;28;20197;-75
2021/10/09 09:49:32;;;;;;;54.85;33.33;;;;;;;;;;5023361;28;20740;-74
2021/10/09 09:51:57;;;;;;;52.63;32.83;;;;;;;;;;5042247;28;20185;-74
2021/10/09 09:54:26;;;;;;;55.80;34.05;;;;;;;;;;5025935;28;20216;-74
2021/10/09 09:57:02;;;;;;;60.92;34.53;;;;;;;;;;5044267;28;20235;-74
2021/10/09 09:59:31;;;;;;;54.35;34.28;;;;;;;;;;5029963;28;20201;-74
2021/10/09 10:02:02;;;;;;;53.25;33.58;;;;;;;;;;5039798;28;20240;-74
2021/10/09 10:04:30;;;;;;;53.13;34.35;;;;;;;;;;5028890;28;20727;-74
2021/10/09 10:06:58;;;;;;;55.30;33.72;;;;;;;;;;5036754;28;20607;-74
2021/10/09 10:09:24;;;;;;;53.75;33.17;;;;;;;;;;5029087;28;20257;-74
2021/10/09 10:11:50;;;;;;;55.13;33.30;;;;;;;;;;5039232;28;20235;-74
2021/10/09 10:14:15;;;;;;;50.75;31.50;;;;;;;;;;5033364;28;20224;-76
2021/10/09 10:16:46;;;;;;;52.90;31.30;;;;;;;;;;5035659;28;20225;-74
2021/10/09 10:19:11;;;;;;;48.50;31.52;;;;;;;;;;5035625;28;20178;-74
2021/10/09 10:21:36;;;;;;;51.10;30.88;;;;;;;;;;5037163;28;20539;-74
2021/10/09 10:24:02;;;;;;;51.00;29.98;;;;;;;;;;5037962;28;20288;-75
2021/10/09 10:26:31;;;;;;;44.00;30.17;;;;;;;;;;5031557;28;20187;-75
2021/10/09 10:28:56;;;;;;;48.10;30.80;;;;;;;;;;5037158;28;20328;-75
2021/10/09 10:31:25;;;;;;;52.28;31.02;;;;;;;;;;5031543;28;20664;-74
2021/10/09 10:34:01;;;;;;;47.78;29.55;;;;;;;;;;5033121;28;20553;-76
2021/10/09 10:36:40;;;;;;;47.45;29.27;;;;;;;;;;5028998;28;20328;-74
2021/10/09 10:39:07;;;;;;;51.72;30.20;;;;;;;;;;5039481;28;20212;-73
2021/10/09 10:42:00;;;;;;;49.83;29.20;;;;;;;;;;5028834;28;20204;-73
2021/10/09 10:44:53;;;;;;;45.38;28.77;;;;;;;;;;5027738;28;20201;-74
2021/10/09 10:47:51;;;;;;;45.17;26.98;;;;;;;;;;5026421;28;20194;-75
2021/10/09 10:50:41;;;;;;;37.95;25.80;;;;;;;;;;5038222;28;20271;-74
2021/10/09 10:53:10;;;;;;;43.88;27.65;;;;;;;;;;5024432;28;20217;-73
2021/10/09 10:56:10;;;;;;;43.58;27.63;;;;;;;;;;5035895;28;20196;-73
2021/10/09 10:58:37;;;;;;;44.72;26.98;;;;;;;;;;5041186;28;20188;-74
2021/10/09 11:01:15;;;;;;;40.78;25.40;;;;;;;;;;5034924;28;20240;-73
2021/10/09 11:03:51;;;;;;;43.15;25.65;;;;;;;;;;5033051;28;20197;-75
2021/10/09 11:06:19;;;;;;;39.03;25.08;;;;;;;;;;5037287;28;20268;-74
2021/10/09 11:08:45;;;;;;;40.13;25.02;;;;;;;;;;5031135;28;20566;-74
2021/10/09 11:11:11;;;;;;;46.78;25.35;;;;;;;;;;5036581;28;20548;-75
2021/10/09 11:13:39;;;;;;;38.53;24.42;;;;;;;;;;5023775;28;20293;-75
2021/10/09 11:16:05;;;;;;;38.75;23.98;;;;;;;;;;5041184;28;20212;-74
2021/10/09 11:18:45;;;;;;;37.33;24.65;;;;;;;;;;5024865;28;20468;-75
2021/10/09 11:21:11;;;;;;;43.80;25.80;;;;;;;;;;5032545;28;20270;-76
2021/10/09 11:23:50;;;;;;;36.70;24.05;;;;;;;;;;5034634;28;20608;-74
2021/10/09 11:26:15;;;;;;;43.53;24.63;;;;;;;;;;5033967;28;20181;-74
2021/10/09 11:28:41;;;;;;;39.25;23.92;;;;;;;;;;5032273;28;20702;-75
2021/10/09 11:31:07;;;;;;;38.60;22.52;;;;;;;;;;5041502;28;20189;-74
2021/10/09 11:33:33;;;;;;;37.58;23.52;;;;;;;;;;5031707;28;20212;-74
2021/10/09 11:36:02;;;;;;;43.75;25.52;;;;;;;;;;5040122;28;20627;-74
2021/10/09 11:38:30;;;;;;;32.50;22.88;;;;;;;;;;5027582;28;21200;-74
2021/10/09 11:41:00;;;;;;;39.17;24.20;;;;;;;;;;5040607;28;20182;-75
2021/10/09 11:43:52;;;;;;;36.67;23.38;;;;;;;;;;5029628;28;20185;-74
2021/10/09 11:53:37;;;;;;;39.38;23.58;;;;;;;;;;5035669;28;20278;-74
2021/10/09 11:55:28;;;;;;;38.97;22.92;;;;;;;;;;5031026;28;20243;-75
2021/10/09 11:57:55;;;;;;;34.58;22.08;;;;;;;;;;5038548;28;20223;-74
2021/10/09 12:00:27;;;;;;;39.03;23.60;;;;;;;;;;5030599;28;20207;-75
2021/10/09 12:02:52;;;;;;;32.90;22.73;;;;;;;;;;5033278;28;20190;-75
2021/10/09 12:05:18;;;;;;;33.10;21.80;;;;;;;;;;5022782;28;20197;-76
2021/10/09 12:08:48;;;;;;;38.33;22.27;;;;;;;;;;5033706;28;20178;-76
2021/10/09 12:11:23;;;;;;;33.72;22.20;;;;;;;;;;5026548;28;20300;-76
2021/10/09 12:14:02;;;;;;;34.67;22.58;;;;;;;;;;5031152;28;20198;-76
2021/10/09 12:16:33;;;;;;;35.22;22.27;;;;;;;;;;5030103;28;20195;-76
2021/10/09 12:19:11;;;;;;;32.78;21.58;;;;;;;;;;5035892;28;20194;-76
2021/10/09 12:21:37;;;;;;;33.50;21.35;;;;;;;;;;5026317;28;20192;-76
2021/10/09 12:24:13;;;;;;;35.33;23.08;;;;;;;;;;5032089;28;20594;-76
2021/10/09 12:26:38;;;;;;;35.28;22.40;;;;;;;;;;5026358;28;20201;-76
2021/10/09 12:29:09;;;;;;;38.55;22.65;;;;;;;;;;5027663;28;20264;-77
2021/10/09 12:31:43;;;;;;;33.38;22.13;;;;;;;;;;5022021;28;20751;-75
2021/10/09 12:34:27;;;;;;;37.17;21.98;;;;;;;;;;5031840;28;20575;-75
2021/10/09 12:37:21;;;;;;;35.47;22.38;;;;;;;;;;5027244;28;20343;-75
2021/10/09 12:40:05;;;;;;;37.35;22.25;;;;;;;;;;5036057;28;20239;-76
2021/10/09 12:42:31;;;;;;;31.38;21.33;;;;;;;;;;5026210;28;20193;-76
2021/10/09 12:44:56;;;;;;;35.22;21.35;;;;;;;;;;5037147;28;20197;-76
2021/10/09 12:47:22;;;;;;;32.60;20.75;;;;;;;;;;5030166;28;20201;-75
2021/10/09 12:49:47;;;;;;;35.88;21.20;;;;;;;;;;5032868;28;20185;-75
2021/10/09 12:52:12;;;;;;;33.17;21.52;;;;;;;;;;5019436;28;22404;-75
2021/10/09 12:54:37;;;;;;;33.70;20.98;;;;;;;;;;5034954;28;20236;-76
2021/10/09 12:57:07;;;;;;;35.38;20.50;;;;;;;;;;5027247;28;20318;-75
2021/10/09 12:59:34;;;;;;;30.42;19.33;;;;;;;;;;5033634;28;20276;-76
2021/10/09 13:01:59;;;;;;;34.15;20.58;;;;;;;;;;5038686;28;20606;-76
2021/10/09 13:04:25;;;;;;;32.70;20.80;;;;;;;;;;5027704;28;20198;-75
2021/10/09 13:06:50;;;;;;;33.25;21.13;;;;;;;;;;5040375;28;20579;-75
2021/10/09 13:09:17;;;;;;;31.17;20.13;;;;;;;;;;5027500;28;20726;-75
2021/10/09 13:11:49;;;;;;;33.50;20.63;;;;;;;;;;5037113;28;20677;-75
2021/10/09 13:14:14;;;;;;;34.75;20.92;;;;;;;;;;5029818;28;20232;-75
2021/10/09 13:16:40;;;;;;;33.80;19.70;;;;;;;;;;5041372;28;20260;-75
2021/10/09 13:19:06;;;;;;;29.88;18.73;;;;;;;;;;5029930;28;20186;-75
2021/10/09 13:21:32;;;;;;;32.17;18.83;;;;;;;;;;5034375;28;20195;-75
2021/10/09 13:23:57;;;;;;;35.42;19.92;;;;;;;;;;5030093;28;20190;-75
2021/10/09 13:26:22;;;;;;;29.27;18.55;;;;;;;;;;5041722;28;20221;-75
2021/10/09 13:28:48;;;;;;;29.08;18.83;;;;;;;;;;5028986;28;20185;-75
2021/10/09 13:31:13;;;;;;;37.03;20.45;;;;;;;;;;5039500;28;20632;-76
2021/10/09 13:33:38;;;;;;;27.73;19.20;;;;;;;;;;5040850;28;20213;-75
2021/10/09 13:36:05;;;;;;;32.17;20.13;;;;;;;;;;5039585;28;20189;-75
2021/10/09 13:38:32;;;;;;;30.88;20.40;;;;;;;;;;5040925;28;20645;-75
2021/10/09 13:40:58;;;;;;;29.63;19.02;;;;;;;;;;5031718;28;20199;-75
2021/10/09 13:43:23;;;;;;;28.30;19.20;;;;;;;;;;5044041;28;20276;-75
2021/10/09 13:45:49;;;;;;;31.35;20.58;;;;;;;;;;5032415;28;20185;-75
2021/10/09 13:48:14;;;;;;;31.88;20.65;;;;;;;;;;5041247;28;20239;-76
2021/10/09 13:50:51;;;;;;;31.25;18.95;;;;;;;;;;5039120;28;20693;-75
2021/10/09 13:53:17;;;;;;;30.30;19.15;;;;;;;;;;5043471;28;20204;-75
2021/10/09 13:55:43;;;;;;;36.50;20.15;;;;;;;;;;5032377;28;20612;-76
2021/10/09 13:58:10;;;;;;;34.97;20.88;;;;;;;;;;5044543;28;20243;-75
2021/10/09 14:00:36;;;;;;;32.83;20.38;;;;;;;;;;5038138;28;20193;-76
2021/10/09 14:03:02;;;;;;;29.98;20.02;;;;;;;;;;5041295;28;20186;-75
2021/10/09 14:05:29;;;;;;;33.60;19.80;;;;;;;;;;5034711;28;20301;-75
2021/10/09 14:07:54;;;;;;;32.15;20.08;;;;;;;;;;5045633;28;20230;-75
2021/10/09 14:10:19;;;;;;;29.98;20.20;;;;;;;;;;5045681;28;20727;-75
2021/10/09 14:12:46;;;;;;;32.63;20.40;;;;;;;;;;5032201;28;20590;-75
2021/10/09 14:15:12;;;;;;;31.10;20.38;;;;;;;;;;5045060;28;20208;-75
2021/10/09 14:17:37;;;;;;;34.10;21.00;;;;;;;;;;5036408;28;20649;-75
2021/10/09 14:20:05;;;;;;;34.70;21.33;;;;;;;;;;5043918;28;20200;-75
2021/10/09 14:22:34;;;;;;;34.05;20.92;;;;;;;;;;5035474;28;20217;-76
2021/10/09 14:25:00;;;;;;;32.70;21.00;;;;;;;;;;5041305;28;20208;-76
2021/10/09 14:27:28;;;;;;;35.53;22.17;;;;;;;;;;5036825;28;20194;-75
2021/10/09 14:29:55;;;;;;;36.58;21.33;;;;;;;;;;5041284;28;20332;-75
2021/10/09 14:32:21;;;;;;;35.22;20.40;;;;;;;;;;5037708;28;20193;-76
2021/10/09 14:34:46;;;;;;;33.00;21.05;;;;;;;;;;5043258;28;20212;-75
2021/10/09 14:37:11;;;;;;;36.58;21.08;;;;;;;;;;5035111;28;20239;-76
2021/10/09 14:39:37;;;;;;;31.73;21.05;;;;;;;;;;5042778;28;20355;-75
2021/10/09 14:42:03;;;;;;;35.25;20.98;;;;;;;;;;5039655;28;20652;-75
2021/10/09 14:44:28;;;;;;;37.92;21.88;;;;;;;;;;5030458;28;20237;-76
2021/10/09 14:49:45;;;;;;;33.00;21.85;;;;;;;;;;5029229;28;20197;-75
2021/10/09 15:16:35;;;;;;;35.58;20.13;;;;;;;;;;5040129;28;20183;-76
2021/10/09 15:19:01;;;;;;;33.42;19.98;;;;;;;;;;5035117;28;20196;-76
2021/10/09 15:21:26;;;;;;;33.63;21.30;;;;;;;;;;5034394;28;20185;-76
2021/10/09 15:23:51;;;;;;;37.45;21.52;;;;;;;;;;5038182;28;20194;-76
2021/10/09 15:26:17;;;;;;;35.58;22.08;;;;;;;;;;5025967;28;20197;-76
2021/10/09 15:28:42;;;;;;;34.72;22.65;;;;;;;;;;5036404;28;20316;-76
2021/10/09 15:31:11;;;;;;;34.95;22.00;;;;;;;;;;5029325;28;20224;-75
2021/10/09 15:33:36;;;;;;;30.30;20.88;;;;;;;;;;5037976;28;20197;-76
2021/10/09 15:36:02;;;;;;;34.40;22.25;;;;;;;;;;5023868;28;20190;-76
2021/10/09 15:38:27;;;;;;;35.38;22.08;;;;;;;;;;5038153;28;20198;-76
2021/10/09 15:40:53;;;;;;;33.15;21.48;;;;;;;;;;5027706;28;22639;-76
2021/10/09 15:43:18;;;;;;;35.05;21.45;;;;;;;;;;5037529;28;20604;-74
2021/10/09 15:45:43;;;;;;;36.03;22.13;;;;;;;;;;5028701;28;21113;-76
2021/10/09 15:48:09;;;;;;;34.40;21.55;;;;;;;;;;5036883;28;20198;-75
2021/10/09 15:50:34;;;;;;;32.95;21.30;;;;;;;;;;5039650;28;20186;-74
2021/10/09 15:52:59;;;;;;;33.78;21.27;;;;;;;;;;5029037;28;20255;-75
2021/10/09 15:55:29;;;;;;;33.88;20.30;;;;;;;;;;5035729;28;20185;-75
2021/10/09 15:57:55;;;;;;;34.55;19.75;;;;;;;;;;5029574;28;20251;-76
2021/10/09 16:00:20;;;;;;;32.30;20.83;;;;;;;;;;5039246;28;20237;-75
2021/10/09 16:02:45;;;;;;;29.90;21.02;;;;;;;;;;5027628;28;20246;-76
2021/10/09 16:05:13;;;;;;;31.23;20.80;;;;;;;;;;5036601;28;20662;-75
2021/10/09 16:07:39;;;;;;;34.95;21.23;;;;;;;;;;5030710;28;20499;-76
2021/10/09 16:10:06;;;;;;;32.25;20.50;;;;;;;;;;5033706;28;20677;-75
2021/10/09 16:12:31;;;;;;;32.22;20.17;;;;;;;;;;5030364;28;20338;-75
2021/10/09 16:14:57;;;;;;;30.52;20.48;;;;;;;;;;5035638;28;20352;-75
2021/10/09 16:17:24;;;;;;;33.80;21.25;;;;;;;;;;5030567;28;20189;-75
2021/10/09 16:19:50;;;;;;;31.67;19.15;;;;;;;;;;5031358;28;20335;-75
2021/10/09 16:22:15;;;;;;;32.10;21.08;;;;;;;;;;5034026;28;20272;-74
2021/10/09 16:24:41;;;;;;;32.63;21.30;;;;;;;;;;5031932;28;20560;-74
2021/10/09 16:27:07;;;;;;;35.97;22.33;;;;;;;;;;5040420;28;20188;-75
2021/10/09 16:29:32;;;;;;;34.15;22.85;;;;;;;;;;5028120;28;20186;-76
2021/10/09 16:31:57;;;;;;;35.53;22.95;;;;;;;;;;5040708;28;20634;-75
2021/10/09 16:34:22;;;;;;;35.35;23.90;;;;;;;;;;5023479;28;20202;-76
2021/10/09 16:36:50;;;;;;;37.55;24.15;;;;;;;;;;5036079;28;20287;-75
2021/10/09 16:39:15;;;;;;;41.80;24.75;;;;;;;;;;5033428;28;20189;-74
2021/10/09 16:41:41;;;;;;;42.08;25.55;;;;;;;;;;5036197;28;20573;-75
2021/10/09 16:44:06;;;;;;;41.17;25.08;;;;;;;;;;5030397;28;20562;-75